This is the latest recevied weather packets stored in our database for station/object DN1US-13. If no packets are shown the sender has not sent any weather packets the latest 1 day(s).
| Time | Temp. | Humidity | Pressure | Rain* | Wind** | Luminosity | Snow |
|---|---|---|---|---|---|---|---|
| 1777975233 | 20° C | 76% | 984 hPa | 0 mm | 0 m/s | - | - |
| 1777974929 | 20.56° C | 72% | 984 hPa | 0 mm | 0 m/s | - | - |
| 1777974625 | 20.56° C | 72% | 984 hPa | 0 mm | 0 m/s | - | - |
| 1777974321 | 21.67° C | 76% | 984 hPa | 0 mm | 0 m/s | - | - |
| 1777974017 | 22.22° C | 79% | 984 hPa | 0 mm | 0 m/s | - | - |
| 1777973713 | 22.22° C | 92% | 984 hPa | 0 mm | 0 m/s | - | - |
| 1777973409 | 23.33° C | 83% | 984.1 hPa | 0 mm | 0 m/s | - | - |
| 1777973105 | 22.22° C | 91% | 984.1 hPa | 0 mm | 0 m/s | - | - |
| 1777972801 | 21.11° C | 10% | - | 0 mm | 0 m/s | - | - |
| 1777972497 | 20.56° C | 10% | - | 0 mm | 0 m/s | - | - |
| 1777972193 | 22.22° C | 95% | 984.3 hPa | 0 mm | 0 m/s | - | - |
| 1777971889 | 20.56° C | 10% | - | 0 mm | 0 m/s | - | - |
| 1777971585 | 20.56° C | 98% | 984.3 hPa | 0 mm | 0 m/s | - | - |
| 1777971281 | 22.78° C | 86% | 984.3 hPa | 0 mm | 0 m/s | - | - |
| 1777970977 | 22.22° C | 87% | 984.3 hPa | 0 mm | 0 m/s | - | - |
| 1777970673 | 22.78° C | 81% | 984.3 hPa | 0 mm | 0 m/s | - | - |
| 1777970372 | 23.89° C | 79% | 984.4 hPa | 0 mm | 0 m/s | - | - |
| 1777970065 | 23.33° C | 89% | 984.4 hPa | 0 mm | 0 m/s | - | - |
| 1777969761 | 23.33° C | 85% | 984.5 hPa | 0 mm | 0 m/s | - | - |
| 1777969457 | 22.22° C | 99% | 984.4 hPa | 0 mm | 0 m/s | - | - |
| 1777969153 | 21.67° C | 98% | 984.4 hPa | 0 mm | 0 m/s | - | - |
| 1777968852 | 21.11° C | 99% | 984.5 hPa | 0 mm | 0 m/s | - | - |
| 1777968545 | 22.22° C | 10% | - | 0 mm | 0 m/s | - | - |
| 1777968241 | 20.56° C | 10% | - | 0 mm | 0 m/s | - | - |
| 1777967937 | 21.11° C | 99% | 984.5 hPa | 0 mm | 0 m/s | - | - |
* Rain latest hour (hover to see other rain measurements)
** Current wind speed in m/s (hover to see current wind gust speed)